Strona główna
METAR-TAF:

METAR-TAF

Lotnisko :

Easton, Maryland, Stany Zjednoczone

Szerokość geograficzna: 38-48N, Długość geograficzna: 076-04W, wysokość: 22 m

Aktualna obserwacja pogody

Raport powstał 40 minut temu, godzina 17:50 UTC
Wiatr 7 kt od południowo-południowy zachód
Temperatura 31°C
Wilgotność 59%
Ciśnienie 1013 hPa
Widzialność: 16.1 km
Mało chmury na wysokości 15000 ft

METAR: KESN 241750Z 20007KT 10SM FEW150 31/22 A2991

czas: 14:30 (18:30 UTC)


TAF: brakujący

Obserwacja i prognoza pogody dla ponad 4000 lotnisk (raport METAR i TAF).

Dostępne stacje oznaczono żółtymi i czerwonymi punktami na mapie.

Najedź kursorem aby zobaczyć nazwę stacji.

Kliknij aby zobaczyć obserwacje i prognozy pogody.

Aby zmienić mapę: kliknij na zielony przycisk z czarnym krzyżykiem, aby powiększyć; na zielony przycisk z myślnikiem, aby pomniejszyć; na zielone strzałki, aby przejść do map sąsiednich.


METAR-TAF: